Time;durP1;ratioP1;P1;durP2;ratioP2;P2;SDS_P1;SDS_P2;PMS_P1;PMS_P2;Temp;Humidity;BMP_temperature;BMP_pressure;BME280_temperature;BME280_humidity;BME280_pressure;Samples;Min_cycle;Max_cycle;Signal;HPM_P1;HPM_P2
2021/11/21 00:02:05;;;;;;;9.53;0.90;;;;;;;5.36;72.25;98928.92;1777004;80;20926;-55
2021/11/21 00:04:32;;;;;;;7.23;0.80;;;;;;;5.33;72.39;98925.90;1774863;80;21507;-55
2021/11/21 00:06:59;;;;;;;5.13;0.80;;;;;;;5.30;72.53;98932.22;1774095;80;21111;-55
2021/11/21 00:09:26;;;;;;;5.23;0.93;;;;;;;5.28;72.68;98924.73;1775324;80;20886;-55
2021/11/21 00:11:53;;;;;;;4.23;1.10;;;;;;;5.27;72.89;98920.82;1778821;79;20913;-55
2021/11/21 00:14:21;;;;;;;5.33;0.80;;;;;;;5.28;73.05;98927.86;1778775;78;20925;-55
2021/11/21 00:16:48;;;;;;;8.80;1.50;;;;;;;5.30;73.23;98926.88;1776395;79;20937;-55
2021/11/21 00:19:15;;;;;;;8.40;1.80;;;;;;;5.33;73.38;98932.58;1776411;79;21399;-55
2021/11/21 00:21:43;;;;;;;7.17;1.00;;;;;;;5.36;73.53;98936.92;1776279;79;20886;-55
2021/11/21 00:24:10;;;;;;;4.50;0.80;;;;;;;5.38;73.64;98933.24;1781929;79;21376;-55
2021/11/21 00:26:38;;;;;;;5.07;1.10;;;;;;;5.41;73.70;98934.47;1780419;79;20882;-55
2021/11/21 00:29:05;;;;;;;6.80;1.10;;;;;;;5.43;73.81;98947.30;1780667;79;21597;-55
2021/11/21 00:31:32;;;;;;;6.97;0.80;;;;;;;5.45;73.94;98936.53;1778186;79;21130;-55
2021/11/21 00:33:59;;;;;;;5.40;0.90;;;;;;;5.46;74.03;98941.81;1772281;79;21753;-55
2021/11/21 00:36:26;;;;;;;3.97;0.90;;;;;;;5.48;74.19;98931.95;1764384;79;21005;-55
2021/11/21 00:38:53;;;;;;;3.83;1.33;;;;;;;5.51;74.32;98933.17;1763551;80;21077;-56
2021/11/21 00:41:20;;;;;;;5.03;0.90;;;;;;;5.56;74.49;98928.96;1764434;80;21489;-55
2021/11/21 00:43:47;;;;;;;6.07;0.90;;;;;;;5.59;74.56;98929.72;1743419;80;21199;-55
2021/11/21 00:46:14;;;;;;;3.93;0.90;;;;;;;5.63;74.63;98931.77;1765677;80;21244;-54
2021/11/21 00:48:41;;;;;;;5.23;0.83;;;;;;;5.66;74.70;98915.64;1764875;80;21562;-55
2021/11/21 00:51:08;;;;;;;4.67;1.20;;;;;;;5.71;74.78;98916.30;1762823;80;21038;-55
2021/11/21 00:53:36;;;;;;;7.80;0.90;;;;;;;5.73;74.83;98904.23;1763587;80;21108;-55
2021/11/21 00:56:04;;;;;;;6.67;1.17;;;;;;;5.74;74.87;98905.97;1764008;80;21136;-55
2021/11/21 00:58:32;;;;;;;4.97;1.07;;;;;;;5.78;74.92;98911.14;1762976;80;21347;-55
2021/11/21 01:00:59;;;;;;;8.60;1.00;;;;;;;5.82;75.00;98907.85;1763933;80;21045;-55
2021/11/21 01:03:26;;;;;;;3.33;1.17;;;;;;;5.87;75.05;98906.71;1767401;80;20983;-55
2021/11/21 01:05:54;;;;;;;4.97;1.00;;;;;;;5.93;75.09;98905.63;1767923;80;21420;-55
2021/11/21 01:08:22;;;;;;;4.37;0.90;;;;;;;5.98;75.17;98891.14;1764063;80;21142;-55
2021/11/21 01:10:53;;;;;;;2.93;1.03;;;;;;;6.03;75.21;98890.48;1764588;80;21217;-55
2021/11/21 01:13:20;;;;;;;6.43;1.00;;;;;;;6.08;75.24;98898.29;1762151;80;21042;-55
2021/11/21 01:15:47;;;;;;;5.13;0.93;;;;;;;6.10;75.25;98888.41;1765152;80;21017;-55
2021/11/21 01:18:15;;;;;;;5.50;1.00;;;;;;;6.14;75.30;98884.65;1758683;80;21491;-55
2021/11/21 01:20:42;;;;;;;4.13;1.00;;;;;;;6.18;75.40;98876.91;1760485;80;21131;-55
2021/11/21 01:23:11;;;;;;;7.77;0.93;;;;;;;6.21;75.50;98868.74;1745280;81;21101;-55
2021/11/21 01:25:40;;;;;;;7.23;1.30;;;;;;;6.27;75.62;98868.95;1721342;81;20969;-55
2021/11/21 01:28:07;;;;;;;5.30;1.27;;;;;;;6.30;75.77;98858.98;1767776;80;20948;-54
2021/11/21 01:30:34;;;;;;;5.50;1.00;;;;;;;6.35;75.87;98857.45;1768253;80;21677;-55
2021/11/21 01:33:01;;;;;;;3.73;1.00;;;;;;;6.39;75.98;98855.02;1769497;80;21089;-55
2021/11/21 01:35:28;;;;;;;4.93;1.30;;;;;;;6.42;76.16;98858.91;1777389;79;21028;-54
2021/11/21 01:37:55;;;;;;;5.30;1.20;;;;;;;6.43;76.30;98852.63;1781532;79;20905;-55
2021/11/21 01:40:22;;;;;;;3.93;1.10;;;;;;;6.44;76.43;98855.23;1774781;79;21064;-55
2021/11/21 01:42:50;;;;;;;4.80;1.13;;;;;;;6.47;76.61;98855.53;1781792;79;21428;-54
2021/11/21 01:45:17;;;;;;;4.53;1.10;;;;;;;6.49;76.76;98846.98;1781754;79;21039;-55
2021/11/21 01:47:45;;;;;;;6.77;1.30;;;;;;;6.53;76.87;98849.06;1774878;79;21370;-55
2021/11/21 01:50:16;;;;;;;5.43;1.20;;;;;;;6.58;76.91;98847.03;1774110;78;21582;-55
2021/11/21 01:52:43;;;;;;;4.43;1.10;;;;;;;6.61;76.95;98844.22;1779643;79;20946;-55
2021/11/21 01:55:10;;;;;;;5.20;1.40;;;;;;;6.65;77.01;98838.65;1777463;79;21020;-53
2021/11/21 01:57:38;;;;;;;6.07;1.17;;;;;;;6.69;76.96;98830.89;1777831;79;21173;-54
2021/11/21 02:00:08;;;;;;;3.37;1.13;;;;;;;6.70;76.88;98838.45;1777811;79;21040;-54
2021/11/21 02:02:42;;;;;;;4.63;1.20;;;;;;;6.69;76.92;98825.55;1782256;79;20945;-54
2021/11/21 02:05:09;;;;;;;4.00;1.10;;;;;;;6.69;76.96;98822.88;1780508;79;20968;-54
2021/11/21 02:07:36;;;;;;;5.20;1.10;;;;;;;6.70;77.00;98821.94;1775128;79;20973;-54
2021/11/21 02:10:06;;;;;;;5.80;1.03;;;;;;;6.70;77.07;98824.61;1772536;79;21753;-54
2021/11/21 02:12:33;;;;;;;3.50;1.20;;;;;;;6.74;77.14;98826.66;1774116;79;20978;-54
2021/11/21 02:15:00;;;;;;;7.20;1.20;;;;;;;6.75;77.23;98822.57;1774655;79;21128;-54
2021/11/21 02:17:27;;;;;;;3.10;1.43;;;;;;;6.76;77.37;98824.31;1773941;79;22288;-54
2021/11/21 02:19:54;;;;;;;5.63;1.30;;;;;;;6.76;77.43;98821.64;1777109;79;21051;-54
2021/11/21 02:22:22;;;;;;;4.43;1.30;;;;;;;6.78;77.50;98829.13;1751259;79;21552;-53
2021/11/21 02:24:49;;;;;;;6.03;1.40;;;;;;;6.79;77.53;98836.68;1775793;79;21071;-54
2021/11/21 02:27:18;;;;;;;5.37;1.10;;;;;;;6.80;77.59;98830.39;1778004;79;21518;-54
2021/11/21 02:29:45;;;;;;;5.27;1.00;;;;;;;6.81;77.65;98823.61;1770187;79;21088;-54
2021/11/21 02:32:12;;;;;;;1.90;1.00;;;;;;;6.82;77.73;98814.64;1792695;79;21357;-54
2021/11/21 02:34:39;;;;;;;4.70;1.00;;;;;;;6.84;77.84;98819.46;1757570;80;21057;-54
2021/11/21 02:37:09;;;;;;;3.37;1.03;;;;;;;6.88;77.89;98815.31;1723361;80;21022;-54
2021/11/21 02:39:38;;;;;;;3.70;1.13;;;;;;;6.91;77.87;98818.69;1761088;79;21080;-53
2021/11/21 02:42:05;;;;;;;4.87;1.47;;;;;;;6.93;77.90;98819.95;1744305;81;20935;-54
2021/11/21 02:44:32;;;;;;;7.63;1.30;;;;;;;6.94;77.97;98815.01;1766448;80;20933;-54
2021/11/21 02:46:59;;;;;;;4.23;1.07;;;;;;;6.94;77.99;98816.34;1747011;80;21097;-54
2021/11/21 02:49:25;;;;;;;3.47;1.00;;;;;;;6.95;78.00;98806.05;1727430;81;20942;-53
2021/11/21 02:51:52;;;;;;;2.30;1.00;;;;;;;6.95;78.05;98807.38;1743397;80;21069;-54
2021/11/21 02:54:20;;;;;;;2.17;1.30;;;;;;;6.94;78.14;98794.47;1743873;80;21394;-54
2021/11/21 02:56:47;;;;;;;3.37;1.13;;;;;;;6.96;78.23;98793.94;1740020;80;21096;-54
2021/11/21 02:59:15;;;;;;;3.03;1.13;;;;;;;6.98;78.28;98795.17;1753618;80;22611;-56
2021/11/21 03:01:42;;;;;;;2.37;1.40;;;;;;;6.99;78.35;98787.08;1719489;80;21022;-56
2021/11/21 03:04:09;;;;;;;4.17;1.50;;;;;;;7.01;78.37;98788.34;1758083;80;21124;-54
2021/11/21 03:06:36;;;;;;;3.13;1.30;;;;;;;7.01;78.37;98772.30;1741535;80;21450;-54
2021/11/21 03:09:03;;;;;;;5.57;1.10;;;;;;;7.01;78.39;98773.16;1740798;80;21092;-54
2021/11/21 03:11:34;;;;;;;2.27;1.07;;;;;;;7.02;78.43;98764.20;1743057;80;21148;-54
2021/11/21 03:14:05;;;;;;;3.80;0.90;;;;;;;7.02;78.50;98762.86;1708726;81;22567;-54
2021/11/21 03:16:34;;;;;;;1.83;1.03;;;;;;;7.02;78.58;98764.20;1760405;80;20923;-54
2021/11/21 03:19:00;;;;;;;2.00;1.07;;;;;;;7.03;78.68;98759.24;1744424;80;20914;-53
2021/11/21 03:21:28;;;;;;;3.27;1.50;;;;;;;7.05;78.74;98758.70;1759622;80;21477;-54
2021/11/21 03:23:55;;;;;;;4.50;1.43;;;;;;;7.05;78.91;98753.82;1765110;80;21445;-54
2021/11/21 03:26:22;;;;;;;1.77;1.20;;;;;;;7.05;78.97;98753.82;1758506;79;21021;-54
2021/11/21 03:28:49;;;;;;;4.83;1.23;;;;;;;7.06;79.06;98766.27;1758709;79;21393;-54
2021/11/21 03:31:17;;;;;;;3.20;1.40;;;;;;;7.07;79.10;98771.98;1741345;80;20969;-53
2021/11/21 03:33:44;;;;;;;3.20;1.40;;;;;;;7.08;79.26;98769.70;1760789;80;21420;-54
2021/11/21 03:36:12;;;;;;;3.00;1.30;;;;;;;7.08;79.36;98771.04;1767693;80;21084;-54
2021/11/21 03:38:39;;;;;;;3.83;1.33;;;;;;;7.09;79.45;98776.33;1770530;80;21026;-54
2021/11/21 03:41:06;;;;;;;2.83;1.30;;;;;;;7.12;79.58;98786.02;1769266;80;21599;-54
2021/11/21 03:43:33;;;;;;;2.57;1.00;;;;;;;7.16;79.68;98788.92;1771990;80;21037;-53
2021/11/21 03:46:00;;;;;;;1.73;1.60;;;;;;;7.21;79.76;98788.24;1746876;81;21119;-54
2021/11/21 03:48:27;;;;;;;3.70;1.40;;;;;;;7.24;79.73;98786.73;1778283;79;21114;-53
2021/11/21 03:50:55;;;;;;;2.90;1.43;;;;;;;7.27;79.77;98788.39;1775299;79;21497;-54
2021/11/21 03:53:22;;;;;;;1.53;1.20;;;;;;;7.27;79.78;98785.72;1775200;79;21808;-54
2021/11/21 03:55:49;;;;;;;3.17;1.30;;;;;;;7.29;79.82;98783.37;1750847;79;21044;-53
2021/11/21 03:58:16;;;;;;;3.67;1.23;;;;;;;7.33;79.89;98784.06;1777196;79;21646;-53
2021/11/21 04:00:46;;;;;;;3.17;1.30;;;;;;;7.35;79.89;98785.73;1777104;79;21163;-54
2021/11/21 04:03:16;;;;;;;2.13;1.40;;;;;;;7.38;79.88;98776.69;1779432;79;21209;-54
2021/11/21 04:05:44;;;;;;;4.13;1.20;;;;;;;7.40;79.93;98773.47;1774779;79;21109;-53
2021/11/21 04:08:11;;;;;;;4.00;2.27;;;;;;;7.41;79.96;98780.52;1778198;78;21037;-54
2021/11/21 04:10:40;;;;;;;3.73;1.30;;;;;;;7.41;79.99;98781.39;1776527;79;21060;-54
2021/11/21 04:13:07;;;;;;;2.80;1.40;;;;;;;7.42;79.95;98777.77;1776020;79;21117;-54
2021/11/21 04:15:34;;;;;;;1.27;0.90;;;;;;;7.44;79.98;98778.57;1774863;78;21391;-54
2021/11/21 04:18:01;;;;;;;2.85;1.27;;;;;;;7.43;79.96;98770.14;1776675;79;21041;-54
2021/11/21 04:20:28;;;;;;;4.23;1.60;;;;;;;7.45;80.06;98766.05;1777010;79;21064;-56
2021/11/21 04:22:55;;;;;;;4.23;1.43;;;;;;;7.47;80.00;98777.09;1775451;79;21449;-53
2021/11/21 04:25:22;;;;;;;2.52;1.67;;;;;;;7.47;80.04;98766.37;1750510;79;21128;-54
2021/11/21 04:27:49;;;;;;;2.67;1.70;;;;;;;7.49;80.06;98765.80;1750226;80;21115;-53
2021/11/21 04:30:16;;;;;;;3.13;1.60;;;;;;;7.47;80.02;98773.07;1772515;79;21057;-54
2021/11/21 04:32:45;;;;;;;2.23;1.40;;;;;;;7.48;80.07;98768.11;1746565;80;21092;-53
2021/11/21 04:35:15;;;;;;;1.63;1.30;;;;;;;7.47;80.10;98766.37;1780366;79;21052;-53
2021/11/21 04:37:42;;;;;;;3.27;1.60;;;;;;;7.47;80.18;98766.37;1773177;79;21677;-54
2021/11/21 04:40:10;;;;;;;2.13;1.37;;;;;;;7.49;80.22;98763.59;1763732;80;21044;-54
2021/11/21 04:42:37;;;;;;;2.77;1.73;;;;;;;7.51;80.23;98767.94;1762488;80;21283;-54
2021/11/21 04:45:05;;;;;;;1.50;1.17;;;;;;;7.51;80.31;98767.06;1775472;78;21092;-54
2021/11/21 04:47:32;;;;;;;3.27;1.90;;;;;;;7.54;80.35;98770.94;1775754;79;21503;-53
2021/11/21 04:49:59;;;;;;;2.67;1.90;;;;;;;7.54;80.36;98763.77;1773364;78;21152;-53
2021/11/21 04:52:26;;;;;;;2.70;1.77;;;;;;;7.53;80.41;98754.47;1773220;79;21352;-54
2021/11/21 04:54:53;;;;;;;4.55;2.22;;;;;;;7.55;80.48;98750.78;1777738;79;21040;-54
2021/11/21 04:57:20;;;;;;;3.10;2.07;;;;;;;7.57;80.51;98751.55;1773171;79;21484;-54
2021/11/21 04:59:47;;;;;;;2.63;1.80;;;;;;;7.58;80.59;98755.09;1792792;79;21010;-54
2021/11/21 05:02:14;;;;;;;2.63;1.70;;;;;;;7.58;80.66;98751.94;1760918;80;21568;-54
2021/11/21 05:04:41;;;;;;;3.43;1.87;;;;;;;7.60;80.74;98759.90;1794121;78;21053;-54
2021/11/21 05:07:08;;;;;;;1.97;1.83;;;;;;;7.64;80.78;98763.30;1759704;80;21088;-55
2021/11/21 05:09:35;;;;;;;2.80;1.93;;;;;;;7.67;80.80;98765.80;1774869;78;21567;-54
2021/11/21 05:12:02;;;;;;;2.20;2.00;;;;;;;7.67;80.84;98748.39;1775539;79;21471;-54
2021/11/21 05:14:30;;;;;;;5.17;3.10;;;;;;;7.69;80.85;98761.23;1777125;79;21161;-53
2021/11/21 05:16:59;;;;;;;1.83;1.70;;;;;;;7.69;80.84;98763.44;1776619;79;21037;-54
2021/11/21 05:19:26;;;;;;;2.12;1.92;;;;;;;7.71;80.89;98764.70;1777429;78;21109;-53
2021/11/21 05:21:53;;;;;;;1.70;1.52;;;;;;;7.72;80.97;98766.44;1778026;79;21028;-54
2021/11/21 05:24:23;;;;;;;2.77;2.40;;;;;;;7.73;81.01;98755.66;1777413;78;22171;-54
2021/11/21 05:26:49;;;;;;;1.87;1.72;;;;;;;7.74;81.01;98754.68;1789499;79;21107;-54
2021/11/21 05:29:15;;;;;;;2.33;2.12;;;;;;;7.78;81.00;98747.36;1762445;79;21025;-54
2021/11/21 05:31:42;;;;;;;1.82;1.72;;;;;;;7.81;81.03;98749.89;1775410;78;21698;-53
2021/11/21 05:34:09;;;;;;;2.27;2.00;;;;;;;7.83;81.02;98751.98;1774560;79;21060;-53
2021/11/21 05:36:36;;;;;;;4.05;2.70;;;;;;;7.85;81.01;98750.10;1765400;79;21084;-53
2021/11/21 05:39:03;;;;;;;2.23;2.03;;;;;;;7.86;80.97;98746.48;1761891;79;21132;-53
2021/11/21 05:41:32;;;;;;;2.20;2.00;;;;;;;7.89;80.96;98746.33;1762922;79;21101;-53
2021/11/21 05:43:59;;;;;;;2.08;1.90;;;;;;;7.91;81.03;98736.41;1761793;79;21057;-54
2021/11/21 05:46:26;;;;;;;2.10;1.87;;;;;;;7.95;81.01;98741.97;1765382;80;20922;-54
2021/11/21 05:48:53;;;;;;;2.30;1.85;;;;;;;7.98;80.94;98732.44;1764946;79;20983;-54
2021/11/21 05:51:20;;;;;;;2.72;1.70;;;;;;;8.03;80.90;98735.72;1766897;79;21153;-54
2021/11/21 05:53:47;;;;;;;3.25;2.75;;;;;;;8.07;80.81;98746.69;1767327;80;20895;-53
2021/11/21 05:56:15;;;;;;;3.77;3.47;;;;;;;8.09;80.74;98729.16;1765996;80;21043;-53
2021/11/21 05:58:42;;;;;;;5.25;2.72;;;;;;;8.11;80.66;98748.23;1771291;80;21437;-54
2021/11/21 06:01:09;;;;;;;3.10;2.42;;;;;;;8.13;80.62;98750.36;1768119;79;20883;-53
2021/11/21 06:03:36;;;;;;;2.27;2.08;;;;;;;8.16;80.55;98749.34;1769765;80;21093;-54
2021/11/21 06:06:03;;;;;;;2.75;2.02;;;;;;;8.15;80.53;98747.14;1766166;80;21374;-54
2021/11/21 06:08:30;;;;;;;2.05;1.95;;;;;;;8.18;80.51;98746.08;1765416;80;21677;-54
2021/11/21 06:10:57;;;;;;;3.87;2.87;;;;;;;8.20;80.47;98739.70;1692058;82;21156;-54
2021/11/21 06:13:27;;;;;;;3.37;3.17;;;;;;;8.26;80.47;98745.19;1716660;81;21112;-54
2021/11/21 06:15:54;;;;;;;2.62;2.42;;;;;;;8.31;80.39;98747.19;1769027;80;21144;-54
2021/11/21 06:18:21;;;;;;;5.03;3.40;;;;;;;8.34;80.32;98742.51;1768359;80;22447;-54
2021/11/21 06:20:48;;;;;;;2.50;2.33;;;;;;;8.37;80.19;98732.09;1767264;80;21064;-53
2021/11/21 06:23:15;;;;;;;2.72;2.27;;;;;;;8.40;80.10;98737.78;1762803;78;21383;-53
2021/11/21 06:25:42;;;;;;;2.37;2.00;;;;;;;8.44;80.08;98743.34;1766973;80;21120;-54
2021/11/21 06:28:10;;;;;;;3.10;2.90;;;;;;;8.48;79.99;98736.88;1767491;79;22629;-56
2021/11/21 06:30:39;;;;;;;4.95;3.58;;;;;;;8.53;79.88;98731.62;1764976;78;22561;-53
2021/11/21 06:33:06;;;;;;;3.52;3.33;;;;;;;8.57;79.83;98728.31;1766488;80;21041;-53
2021/11/21 06:35:33;;;;;;;4.55;4.25;;;;;;;8.62;79.72;98735.61;1764939;79;21070;-53
2021/11/21 06:38:00;;;;;;;3.45;3.15;;;;;;;8.64;79.62;98735.06;1775099;78;21068;-54
2021/11/21 06:40:27;;;;;;;3.70;3.40;;;;;;;8.69;79.47;98738.34;1775840;78;21809;-54
2021/11/21 06:42:54;;;;;;;3.98;3.55;;;;;;;8.72;79.34;98741.72;1775713;78;21080;-54
2021/11/21 06:45:21;;;;;;;4.00;3.40;;;;;;;8.75;79.19;98747.41;1796058;77;22502;-54
2021/11/21 06:47:50;;;;;;;3.90;3.52;;;;;;;8.79;79.12;98743.58;1790595;77;21154;-54
2021/11/21 06:50:17;;;;;;;3.80;3.05;;;;;;;8.82;79.03;98740.73;1763455;79;20934;-54
2021/11/21 06:52:44;;;;;;;4.10;3.80;;;;;;;8.87;78.86;98739.98;1780753;79;21483;-54
2021/11/21 06:55:12;;;;;;;5.12;4.72;;;;;;;8.90;78.67;98742.50;1780684;79;21121;-54
2021/11/21 06:57:39;;;;;;;3.87;3.42;;;;;;;8.92;78.46;98739.73;1777019;78;21093;-54
2021/11/21 07:00:15;;;;;;;5.05;4.55;;;;;;;8.92;78.36;98738.39;1774680;78;22519;-54
2021/11/21 07:02:42;;;;;;;3.25;2.98;;;;;;;8.93;78.26;98738.27;1777011;78;21738;-54
2021/11/21 07:05:09;;;;;;;4.17;3.87;;;;;;;8.95;78.21;98739.05;1790894;78;21107;-54
2021/11/21 07:07:36;;;;;;;4.60;4.20;;;;;;;8.99;78.08;98739.76;1764154;80;21490;-54
2021/11/21 07:10:05;;;;;;;4.65;4.35;;;;;;;9.00;78.02;98735.65;1777619;79;21653;-54
2021/11/21 07:12:32;;;;;;;4.53;4.15;;;;;;;9.03;77.92;98739.95;1777170;79;21464;-54
2021/11/21 07:14:59;;;;;;;4.75;4.45;;;;;;;9.04;77.82;98732.30;1780364;79;21380;-54
2021/11/21 07:17:26;;;;;;;5.10;4.47;;;;;;;9.07;77.75;98730.31;1779903;79;21094;-54
2021/11/21 07:19:52;;;;;;;4.40;4.00;;;;;;;9.09;77.56;98735.12;1779217;79;21209;-54
2021/11/21 07:22:20;;;;;;;3.72;3.42;;;;;;;9.11;77.48;98729.16;1776966;79;21116;-54
2021/11/21 07:24:47;;;;;;;3.30;3.10;;;;;;;9.17;77.40;98734.66;1775478;79;21040;-53
2021/11/21 07:27:14;;;;;;;5.17;4.78;;;;;;;9.20;77.27;98729.09;1776560;79;21994;-54
2021/11/21 07:29:41;;;;;;;4.33;3.92;;;;;;;9.23;77.08;98736.11;1774719;79;21129;-54
2021/11/21 07:32:10;;;;;;;4.08;3.77;;;;;;;9.22;77.04;98740.62;1774094;79;21484;-53
2021/11/21 07:34:37;;;;;;;4.97;4.53;;;;;;;9.24;76.92;98737.84;1774936;78;21403;-54
2021/11/21 07:37:04;;;;;;;4.65;4.25;;;;;;;9.26;76.78;98741.31;1776683;78;21056;-54
2021/11/21 07:39:31;;;;;;;4.55;4.25;;;;;;;9.28;76.75;98738.91;1777494;79;21084;-54
2021/11/21 07:41:58;;;;;;;4.62;4.25;;;;;;;9.30;76.66;98738.82;1777557;78;21865;-54
2021/11/21 07:44:25;;;;;;;5.60;4.95;;;;;;;9.31;76.61;98733.84;1777203;79;21076;-54
2021/11/21 07:46:52;;;;;;;4.78;4.37;;;;;;;9.31;76.49;98737.39;1789761;79;22171;-53
2021/11/21 07:49:20;;;;;;;4.58;4.17;;;;;;;9.31;76.42;98737.88;1771326;79;21093;-54
2021/11/21 07:51:47;;;;;;;5.60;5.10;;;;;;;9.30;76.37;98733.45;1773555;79;21100;-54
2021/11/21 07:54:14;;;;;;;4.55;4.22;;;;;;;9.31;76.32;98740.08;1777266;79;21688;-54
2021/11/21 07:56:42;;;;;;;4.58;4.25;;;;;;;9.33;76.28;98741.34;1778190;79;21096;-54
2021/11/21 07:59:10;;;;;;;4.65;4.28;;;;;;;9.35;76.23;98735.41;1780313;79;20918;-54
2021/11/21 08:01:37;;;;;;;4.03;3.72;;;;;;;9.35;76.22;98738.95;1781961;79;20929;-54
2021/11/21 08:04:05;;;;;;;4.92;4.47;;;;;;;9.38;76.18;98741.44;1783176;79;20925;-54
2021/11/21 08:06:33;;;;;;;5.12;4.72;;;;;;;9.41;76.09;98735.03;1783103;79;21109;-54
2021/11/21 08:09:00;;;;;;;4.70;4.30;;;;;;;9.42;75.97;98735.42;1785880;78;20941;-54
2021/11/21 08:11:28;;;;;;;4.78;4.37;;;;;;;9.42;75.83;98743.00;1761812;79;21025;-53
2021/11/21 08:13:58;;;;;;;4.37;4.05;;;;;;;9.44;75.69;98741.58;1777058;79;21243;-54
2021/11/21 08:16:26;;;;;;;4.20;3.90;;;;;;;9.45;75.62;98739.25;1779740;79;20969;-53
2021/11/21 08:18:53;;;;;;;3.30;3.10;;;;;;;9.47;75.56;98749.43;1782771;79;21738;-53
2021/11/21 08:21:19;;;;;;;4.25;3.95;;;;;;;9.48;75.35;98741.77;1781613;78;21551;-54
2021/11/21 08:23:46;;;;;;;4.03;3.62;;;;;;;9.48;75.29;98739.08;1780353;79;21307;-54
2021/11/21 08:26:12;;;;;;;5.47;4.97;;;;;;;9.50;75.11;98741.20;1781481;79;20882;-54
2021/11/21 08:28:39;;;;;;;3.92;3.65;;;;;;;9.50;75.05;98741.20;1785306;79;20922;-55
2021/11/21 08:31:07;;;;;;;3.12;2.83;;;;;;;9.49;74.98;98736.78;1785494;78;21087;-55
2021/11/21 08:33:33;;;;;;;4.05;3.75;;;;;;;9.51;74.86;98733.53;1783412;79;20949;-54
2021/11/21 08:36:00;;;;;;;4.30;3.90;;;;;;;9.51;74.84;98732.19;1779701;79;20949;-53
2021/11/21 08:38:27;;;;;;;5.05;4.47;;;;;;;9.52;74.80;98737.09;1748696;81;20977;-54
2021/11/21 08:40:53;;;;;;;6.25;5.42;;;;;;;9.51;74.72;98737.56;1750633;81;20965;-54
2021/11/21 08:43:20;;;;;;;4.00;3.80;;;;;;;9.50;74.61;98734.48;1750517;81;21105;-54
2021/11/21 08:45:48;;;;;;;5.33;4.55;;;;;;;9.49;74.58;98736.78;1752169;80;21057;-54
2021/11/21 08:48:14;;;;;;;2.77;2.58;;;;;;;9.48;74.45;98731.88;1753868;81;21424;-54
2021/11/21 08:50:40;;;;;;;3.85;3.52;;;;;;;9.49;74.42;98738.13;1764926;80;21476;-54
2021/11/21 08:53:07;;;;;;;4.95;2.35;;;;;;;9.52;74.34;98741.11;1745416;79;20925;-54
2021/11/21 08:55:34;;;;;;;2.92;2.72;;;;;;;9.53;74.32;98739.66;1742310;80;21025;-54
2021/11/21 08:58:04;;;;;;;3.75;3.45;;;;;;;9.56;74.01;98734.59;1764663;80;20922;-54
2021/11/21 09:00:30;;;;;;;5.95;3.42;;;;;;;9.56;73.94;98732.77;1742680;81;21409;-54
2021/11/21 09:02:57;;;;;;;3.75;3.45;;;;;;;9.56;73.90;98722.02;1739067;80;21522;-54
2021/11/21 09:05:23;;;;;;;3.77;3.10;;;;;;;9.57;73.76;98722.41;1726361;81;21551;-54
2021/11/21 09:07:49;;;;;;;5.17;3.50;;;;;;;9.59;73.65;98724.53;1729348;80;21437;-53
2021/11/21 09:10:19;;;;;;;4.28;2.90;;;;;;;9.63;73.60;98719.34;1742036;79;21531;-53
2021/11/21 09:12:46;;;;;;;2.37;2.17;;;;;;;9.65;73.53;98719.25;1729766;81;21041;-54
2021/11/21 09:15:16;;;;;;;3.02;2.60;;;;;;;9.69;73.42;98719.47;1743120;81;21029;-54
2021/11/21 09:17:45;;;;;;;3.45;2.55;;;;;;;9.70;73.25;98718.48;1725346;82;20961;-54
2021/11/21 09:20:11;;;;;;;2.25;2.05;;;;;;;9.71;73.09;98714.84;1764494;80;21059;-54
2021/11/21 09:22:38;;;;;;;2.33;2.12;;;;;;;9.69;73.04;98717.65;1762627;79;20882;-54
2021/11/21 09:25:06;;;;;;;2.15;1.62;;;;;;;9.70;73.00;98713.97;1762575;79;20887;-54
2021/11/21 09:27:32;;;;;;;2.12;1.90;;;;;;;9.72;72.88;98716.09;1761473;79;20970;-54
2021/11/21 09:29:59;;;;;;;1.75;1.65;;;;;;;9.73;72.78;98711.11;1764164;79;20933;-54
2021/11/21 09:32:26;;;;;;;3.70;1.67;;;;;;;9.75;72.67;98715.05;1760371;80;21937;-54
2021/11/21 09:34:52;;;;;;;2.33;1.85;;;;;;;9.75;72.58;98702.48;1753541;80;21871;-54
2021/11/21 09:37:18;;;;;;;2.85;2.65;;;;;;;9.77;72.48;98707.77;1768106;79;21061;-53
2021/11/21 09:39:45;;;;;;;2.37;2.17;;;;;;;9.77;72.46;98707.30;1788249;79;21080;-54
2021/11/21 09:42:13;;;;;;;2.22;2.02;;;;;;;9.78;72.37;98707.65;1774926;80;21077;-54
2021/11/21 09:44:40;;;;;;;1.75;1.65;;;;;;;9.80;72.32;98706.22;1752063;80;21127;-54
2021/11/21 09:47:06;;;;;;;3.05;2.65;;;;;;;9.81;72.34;98701.23;1778570;80;20984;-54
2021/11/21 09:51:38;;;;;;;4.40;2.40;;;;;;;9.92;72.36;98696.55;1820912;76;22552;-55
2021/11/21 09:54:04;;;;;;;4.08;3.33;;;;;;;9.90;72.28;98693.94;1808533;77;21019;-54
2021/11/21 09:56:31;;;;;;;3.77;3.47;;;;;;;9.93;72.19;98691.55;1808601;77;21439;-56
2021/11/21 09:58:57;;;;;;;4.22;2.55;;;;;;;9.93;72.10;98689.73;1805235;77;22615;-55
2021/11/21 10:01:42;;;;;;;2.42;2.22;;;;;;;9.97;72.09;98690.39;1808914;77;21100;-55
2021/11/21 10:04:12;;;;;;;3.15;2.65;;;;;;;10.03;71.98;98690.02;1812004;77;20945;-54
2021/11/21 10:06:45;;;;;;;3.15;2.90;;;;;;;10.07;71.93;98691.55;1809865;77;20984;-53
2021/11/21 10:09:18;;;;;;;2.95;2.65;;;;;;;10.12;71.73;98685.41;1810118;77;21125;-54
2021/11/21 10:12:06;;;;;;;3.10;2.58;;;;;;;10.15;71.52;98678.48;1811926;77;21301;-54
2021/11/21 10:14:33;;;;;;;2.27;1.80;;;;;;;10.17;71.33;98681.50;1813321;77;21644;-54
2021/11/21 10:17:00;;;;;;;3.02;2.15;;;;;;;10.19;71.15;98686.78;1809833;77;21515;-54
2021/11/21 10:19:26;;;;;;;2.60;2.40;;;;;;;10.21;71.01;98683.02;1810417;77;21445;-55
2021/11/21 10:21:58;;;;;;;2.75;2.52;;;;;;;10.23;70.95;98675.72;1809137;77;21084;-54
2021/11/21 10:24:29;;;;;;;2.67;2.27;;;;;;;10.24;70.81;98676.58;1807966;77;21041;-55
2021/11/21 10:27:18;;;;;;;4.17;2.55;;;;;;;10.24;70.77;98676.58;1813186;77;20945;-55
2021/11/21 10:29:47;;;;;;;2.83;1.80;;;;;;;10.23;70.62;98668.13;1809521;77;21718;-55
2021/11/21 10:32:26;;;;;;;3.25;2.00;;;;;;;10.21;70.48;98668.70;1807584;77;20907;-55
2021/11/21 10:35:00;;;;;;;2.80;2.62;;;;;;;10.18;70.43;98667.09;1795520;79;21091;-55
2021/11/21 10:37:36;;;;;;;3.17;2.35;;;;;;;10.14;70.43;98667.34;1793827;77;21421;-54
2021/11/21 10:40:13;;;;;;;2.55;2.30;;;;;;;10.14;70.42;98668.68;1800261;79;21334;-54
2021/11/21 10:42:42;;;;;;;3.17;2.98;;;;;;;10.11;70.42;98660.83;1797324;79;21717;-54
2021/11/21 10:45:10;;;;;;;3.02;2.75;;;;;;;10.10;70.46;98663.12;1795904;79;20929;-54
2021/11/21 10:47:55;;;;;;;4.20;3.85;;;;;;;10.10;70.46;98659.97;1800708;79;21119;-55
2021/11/21 10:50:33;;;;;;;4.42;3.15;;;;;;;10.11;70.39;98656.80;1800015;78;21334;-55
2021/11/21 10:53:08;;;;;;;3.55;3.30;;;;;;;10.09;70.33;98655.55;1797616;79;20965;-55
2021/11/21 10:55:39;;;;;;;3.55;3.17;;;;;;;10.08;70.35;98648.91;1795815;79;20907;-54
2021/11/21 10:58:17;;;;;;;5.42;2.77;;;;;;;10.06;70.30;98650.83;1798419;79;20855;-52
2021/11/21 11:00:56;;;;;;;2.75;2.55;;;;;;;10.04;70.22;98650.92;1802827;79;22871;-53
2021/11/21 11:03:25;;;;;;;4.58;4.17;;;;;;;10.04;70.10;98643.33;1798403;79;20855;-54
2021/11/21 11:05:52;;;;;;;3.67;3.33;;;;;;;10.03;70.06;98644.32;1802243;79;20887;-52
2021/11/21 11:08:27;;;;;;;4.15;3.65;;;;;;;10.03;69.99;98641.63;1799217;79;20930;-53
2021/11/21 11:10:54;;;;;;;3.47;3.17;;;;;;;10.05;69.88;98640.55;1759013;81;21389;-53
2021/11/21 11:13:23;;;;;;;3.83;3.50;;;;;;;10.08;69.71;98632.30;1742220;80;21351;-53
2021/11/21 11:15:50;;;;;;;2.52;2.33;;;;;;;10.09;69.56;98638.06;1726831;82;20950;-54
2021/11/21 11:18:17;;;;;;;3.10;2.77;;;;;;;10.10;69.50;98633.55;1757209;81;20895;-53
2021/11/21 11:20:53;;;;;;;3.75;2.10;;;;;;;10.12;69.32;98628.95;1759197;81;20961;-54
2021/11/21 11:23:20;;;;;;;3.55;2.35;;;;;;;10.13;69.15;98628.83;1745702;81;20886;-53
2021/11/21 11:25:47;;;;;;;3.37;3.08;;;;;;;10.17;68.96;98627.72;1761857;81;21024;-53
2021/11/21 11:28:28;;;;;;;3.33;2.92;;;;;;;10.21;68.77;98632.39;1749360;81;20922;-54
2021/11/21 11:30:57;;;;;;;2.95;2.52;;;;;;;10.23;68.44;98630.00;1733158;82;20986;-53
2021/11/21 11:33:27;;;;;;;2.47;2.27;;;;;;;10.25;68.40;98627.22;1744023;81;20937;-54
2021/11/21 11:35:56;;;;;;;2.30;2.10;;;;;;;10.29;68.10;98631.93;1717996;81;21005;-53
2021/11/21 11:38:26;;;;;;;2.70;2.52;;;;;;;10.28;67.89;98633.75;1742572;80;22136;-53
2021/11/21 11:41:02;;;;;;;2.75;2.50;;;;;;;10.28;67.79;98636.92;1741182;80;20938;-54
2021/11/21 11:43:42;;;;;;;2.42;2.25;;;;;;;10.27;67.33;98627.98;1740882;80;21372;-53
2021/11/21 11:46:24;;;;;;;2.72;1.85;;;;;;;10.25;67.10;98621.84;1740737;80;20918;-53
2021/11/21 11:49:03;;;;;;;2.80;2.60;;;;;;;10.25;66.80;98620.49;1739391;80;20949;-53